Yamato — JD2252 — position and weather

sailwx.info

Track history (hours):
 
Tides and Currents Weather Stations Pressure Air Temp Water Temp Dewpoint Dewpoint Depression Visibility Wind Speed Wind Dir Waves Ship Positions

Yamato

Last reported at 2015-Sep-02 21:34 UTC. Time now 2015-Sep-02 21:48 UTC.
Position N 35°27' E 139°39'.

Length 43 m; draft 3.6 m.

Type: Tug. MMSI: 431101141.

Date/timePositionNaut miles runAvg speedWind from/ knotsBaromVisibWave heightAir tempDewpointWater temp
2015-Sep-02 21:34N 35°27' E 139°39'0 0.0
2015-Sep-02 20:34N 35°27' E 139°39'0 0.0
2015-Sep-02 19:34N 35°27' E 139°39'0 0.0
2015-Sep-02 18:34N 35°27' E 139°39'0 0.0
2015-Sep-02 17:34N 35°27' E 139°39'0 0.0
2015-Sep-02 16:34N 35°27' E 139°39'0 0.0
2015-Sep-02 15:33N 35°27' E 139°39'0 0.0
2015-Sep-02 14:33N 35°27' E 139°39'0 0.0
2015-Sep-02 13:33N 35°27' E 139°39'0 0.0
2015-Sep-02 12:33N 35°27' E 139°39'0 0.0
2015-Sep-02 11:34N 35°27' E 139°39'0 0.0
2015-Sep-02 10:33N 35°27' E 139°39'0 0.0
2015-Sep-02 09:33N 35°27' E 139°39'0 0.0
2015-Sep-02 08:33N 35°27' E 139°39'0 0.0
2015-Sep-02 07:33N 35°27' E 139°39'0 0.0
2015-Sep-02 06:33N 35°27' E 139°39'0 0.0
2015-Sep-02 05:33N 35°27' E 139°39'0 0.0
2015-Sep-02 04:33N 35°27' E 139°39'0 0.0
2015-Sep-02 03:33N 35°27' E 139°39'0 0.0
2015-Sep-02 02:33N 35°27' E 139°39'0 0.0
2015-Sep-02 01:33N 35°27' E 139°39'0 0.0
2015-Sep-02 00:33N 35°27' E 139°39'2 1.9
2015-Sep-01 23:33N 35°27' E 139°41'4 3.7
2015-Sep-01 22:33N 35°29' E 139°45'3 3.4
2015-Sep-01 21:33N 35°27' E 139°41'2 2.3
2015-Sep-01 20:33N 35°27' E 139°39'0 0.0
2015-Sep-01 07:12N 35°27' E 139°39'1 2.2
2015-Sep-01 06:33N 35°28' E 139°40'0 0.1
2015-Sep-01 05:33N 35°28' E 139°40'0 0.0
2015-Sep-01 04:33N 35°28' E 139°40'4 4.0
2015-Sep-01 03:33N 35°24' E 139°41'3 2.8
2015-Sep-01 02:33N 35°26' E 139°42'0 0.3
2015-Sep-01 01:33N 35°27' E 139°41'4 3.6
2015-Sep-01 00:33N 35°24' E 139°38'3 2.8
2015-Aug-31 23:34N 35°24' E 139°42'4 4.0
2015-Aug-31 22:33N 35°27' E 139°39'0 0.0
2015-Aug-31 21:33N 35°27' E 139°39'0 0.0
2015-Aug-31 20:33N 35°27' E 139°39'0 0.0
2015-Aug-31 19:33N 35°27' E 139°39'0 0.0
2015-Aug-31 18:33N 35°27' E 139°39'0 0.0
2015-Aug-31 17:33N 35°27' E 139°39'0 0.0
2015-Aug-31 16:33N 35°27' E 139°39'0 0.0
2015-Aug-31 15:33N 35°27' E 139°39'0 0.0
2015-Aug-31 14:33N 35°27' E 139°39'0 0.0
2015-Aug-31 13:33N 35°27' E 139°39'0 0.0
2015-Aug-31 12:33N 35°27' E 139°39'0 0.0
2015-Aug-31 11:33N 35°27' E 139°39'0 0.0
2015-Aug-31 10:33N 35°27' E 139°39'0 0.0
2015-Aug-31 09:33N 35°27' E 139°39'2 2.3
2015-Aug-31 08:33N 35°27' E 139°41'0 0.4
2015-Aug-31 07:34N 35°27' E 139°41'2 2.3
2015-Aug-31 06:33N 35°27' E 139°39'0 0.0
2015-Aug-31 05:33N 35°27' E 139°39'0 0.0
2015-Aug-31 04:33N 35°27' E 139°39'0 0.0
2015-Aug-31 03:33N 35°27' E 139°39'0 0.0
2015-Aug-31 02:33N 35°27' E 139°39'0 0.0
2015-Aug-31 01:33N 35°27' E 139°39'0 0.0
2015-Aug-31 00:33N 35°27' E 139°39'4 4.1
2015-Aug-30 23:33N 35°28' E 139°44'2 2.1
2015-Aug-30 22:33N 35°30' E 139°44'2 2.3
2015-Aug-30 21:33N 35°31' E 139°46'7 6.8
2015-Aug-30 20:33N 35°27' E 139°39'0 0.3
2015-Aug-30 19:33N 35°27' E 139°39'0 0.0
2015-Aug-30 18:33N 35°27' E 139°39'0 0.0
2015-Aug-30 17:33N 35°27' E 139°39'0 0.0
2015-Aug-30 16:33N 35°27' E 139°39'0 0.0
2015-Aug-30 15:33N 35°27' E 139°39'0 0.0
2015-Aug-30 14:33N 35°27' E 139°39'0 0.0
2015-Aug-30 13:33N 35°27' E 139°39'0 0.0
2015-Aug-30 12:33N 35°27' E 139°39'0 0.0
2015-Aug-30 11:33N 35°27' E 139°39'0 0.0
2015-Aug-30 10:33N 35°27' E 139°39'0 0.0
2015-Aug-30 09:33N 35°27' E 139°39'0 0.0
2015-Aug-30 08:33N 35°27' E 139°39'0 0.0
2015-Aug-30 07:33N 35°27' E 139°39'0 0.0
2015-Aug-30 06:33N 35°27' E 139°39'0 0.0
2015-Aug-30 05:33N 35°27' E 139°39'0 0.0
2015-Aug-30 04:33N 35°27' E 139°39'0 0.0
2015-Aug-30 03:33N 35°27' E 139°39'0 0.0
2015-Aug-30 02:33N 35°27' E 139°39'0 0.0
2015-Aug-30 01:33N 35°27' E 139°39'0 0.0
2015-Aug-30 00:33N 35°27' E 139°39'0 0.0
2015-Aug-29 23:33N 35°27' E 139°39'0 0.0
2015-Aug-29 22:33N 35°27' E 139°39'0 0.0
2015-Aug-29 21:33N 35°27' E 139°39'0 0.0
2015-Aug-29 20:33N 35°27' E 139°39'0 0.0
2015-Aug-29 19:33N 35°27' E 139°39'0 0.0
2015-Aug-29 18:33N 35°27' E 139°39'0 0.0
2015-Aug-29 17:33N 35°27' E 139°39'0 0.0
2015-Aug-29 16:33N 35°27' E 139°39'0 0.0
2015-Aug-29 15:33N 35°27' E 139°39'0 0.0
2015-Aug-29 14:33N 35°27' E 139°39'0 0.0
2015-Aug-29 13:33N 35°27' E 139°39'0 0.0
2015-Aug-29 12:33N 35°27' E 139°39'0 0.0
2015-Aug-29 11:33N 35°27' E 139°39'0 0.0
2015-Aug-29 10:33N 35°27' E 139°39'2 2.1
2015-Aug-29 09:33N 35°26' E 139°41'1 1.1
2015-Aug-29 08:33N 35°26' E 139°42'0 0.3
2015-Aug-29 07:33N 35°26' E 139°42'0 0.0
2015-Aug-29 06:33N 35°26' E 139°42'1 1.3
2015-Aug-29 05:33N 35°27' E 139°41'2 2.1
2015-Aug-29 04:33N 35°26' E 139°43'4 3.9
2015-Aug-29 03:33N 35°27' E 139°39'0 0.0
2015-Aug-29 02:33N 35°27' E 139°39'0 0.0
2015-Aug-29 01:33N 35°27' E 139°39'0 0.0
2015-Aug-29 00:33N 35°27' E 139°39'6 6.1
2015-Aug-28 23:33N 35°29' E 139°46'2 1.5
2015-Aug-28 22:33N 35°29' E 139°48'4 3.7
2015-Aug-28 21:33N 35°27' E 139°44'4 4.1
2015-Aug-28 20:33N 35°27' E 139°39'0 0.0
2015-Aug-28 19:33N 35°27' E 139°39'0 0.0
2015-Aug-28 18:33N 35°27' E 139°39'0 0.0
2015-Aug-28 17:33N 35°27' E 139°39'0 0.0
2015-Aug-28 16:33N 35°27' E 139°39'0 0.0
2015-Aug-28 15:33N 35°27' E 139°39'0 0.0
2015-Aug-28 14:33N 35°27' E 139°39'0 0.0
2015-Aug-28 13:33N 35°27' E 139°39'0 0.0
2015-Aug-28 12:33N 35°27' E 139°39'0 0.0
2015-Aug-28 11:33N 35°27' E 139°39'0 0.0
2015-Aug-28 10:33N 35°27' E 139°39'0 0.0
2015-Aug-28 09:33N 35°27' E 139°39'0 0.0
2015-Aug-28 08:33N 35°27' E 139°39'0 0.0
2015-Aug-28 07:33N 35°27' E 139°39'0 0.0
2015-Aug-28 06:33N 35°27' E 139°39'0 0.0
2015-Aug-28 05:33N 35°27' E 139°39'0 0.0
2015-Aug-28 04:33N 35°27' E 139°39'0 0.0
2015-Aug-28 03:33N 35°27' E 139°39'0 0.0
2015-Aug-28 02:33N 35°27' E 139°39'1 0.7
2015-Aug-28 01:33N 35°27' E 139°39'7 6.6
2015-Aug-28 00:33N 35°31' E 139°46'1 0.8
2015-Aug-27 23:33N 35°30' E 139°46'5 5.0
2015-Aug-27 22:34N 35°27' E 139°41'2 1.9
2015-Aug-27 21:33N 35°26' E 139°42'4 3.5
2015-Aug-27 20:33N 35°27' E 139°39'0 0.0
2015-Aug-27 11:23N 35°27' E 139°39'2 2.6
2015-Aug-27 10:33N 35°27' E 139°41'1 0.8
2015-Aug-27 09:33N 35°28' E 139°40'0 0.0
2015-Aug-27 08:33N 35°28' E 139°40'0 0.0
2015-Aug-27 07:33N 35°28' E 139°40'0 0.5
2015-Aug-27 06:34N 35°27' E 139°41'0 0.4
2015-Aug-27 05:33N 35°28' E 139°40'0 0.0
2015-Aug-27 04:33N 35°28' E 139°40'4 4.1
2015-Aug-27 03:33N 35°24' E 139°38'0 0.0
2015-Aug-27 02:33N 35°24' E 139°38'3 3.4
2015-Aug-27 01:33N 35°22' E 139°41'5 5.0
2015-Aug-27 00:33N 35°27' E 139°41'2 0.1
2015-Aug-25 23:33N 35°27' E 139°39'2 2.2
2015-Aug-25 22:34N 35°27' E 139°41'3 2.7
2015-Aug-25 21:34N 35°25' E 139°42'1 1.4
2015-Aug-25 20:34N 35°26' E 139°42'0 0.0
2015-Aug-25 19:34N 35°26' E 139°42'1 0.9
2015-Aug-25 18:33N 35°27' E 139°41'1 1.1
2015-Aug-25 17:34N 35°27' E 139°42'4 4.3
2015-Aug-25 16:34N 35°30' E 139°46'0 0.4
2015-Aug-25 15:34N 35°29' E 139°47'0 0.0
2015-Aug-25 14:34N 35°29' E 139°47'0 0.0
2015-Aug-25 13:34N 35°29' E 139°47'0 0.1
2015-Aug-25 12:34N 35°29' E 139°47'4 4.0
2015-Aug-25 11:34N 35°27' E 139°42'2 2.5
2015-Aug-25 10:34N 35°27' E 139°39'4 3.6
2015-Aug-25 09:33N 35°25' E 139°43'5 5.0
2015-Aug-25 08:34N 35°24' E 139°38'4 3.8
2015-Aug-25 07:34N 35°26' E 139°42'3 3.1
2015-Aug-25 06:34N 35°27' E 139°39'0 0.1
2015-Aug-25 05:34N 35°27' E 139°39'0 0.1
2015-Aug-25 04:34N 35°27' E 139°39'2 1.5
2015-Aug-25 03:34N 35°28' E 139°40'3 2.7
2015-Aug-25 02:34N 35°29' E 139°43'2 2.2
2015-Aug-25 01:34N 35°27' E 139°43'4 3.8
2015-Aug-25 00:34N 35°27' E 139°39'0 0.0
2015-Aug-24 23:34N 35°27' E 139°39'0 0.0
2015-Aug-24 22:34N 35°27' E 139°39'0 0.0
2015-Aug-24 21:34N 35°27' E 139°39'0 0.0
2015-Aug-24 20:34N 35°27' E 139°39'0 0.0
2015-Aug-24 19:34N 35°27' E 139°39'0 0.0
2015-Aug-24 18:33N 35°27' E 139°39'0 0.0
2015-Aug-24 17:34N 35°27' E 139°39'0 0.0
2015-Aug-24 16:34N 35°27' E 139°39'0 0.0
2015-Aug-24 15:34N 35°27' E 139°39'0 0.0
2015-Aug-24 14:34N 35°27' E 139°39'0 0.0
2015-Aug-24 13:34N 35°27' E 139°39'0 0.0
2015-Aug-24 12:34N 35°27' E 139°39'0 0.0
2015-Aug-24 11:33N 35°27' E 139°39'0 0.0
2015-Aug-24 10:34N 35°27' E 139°39'0 0.0
2015-Aug-24 09:34N 35°27' E 139°39'0 0.0
2015-Aug-24 08:34N 35°27' E 139°39'0 0.0
2015-Aug-24 07:34N 35°27' E 139°39'0 0.0
2015-Aug-24 06:34N 35°27' E 139°39'1 1.0
2015-Aug-24 05:34N 35°27' E 139°40'0 0.0
2015-Aug-24 04:34N 35°27' E 139°40'0 0.0
2015-Aug-24 03:34N 35°27' E 139°40'0 0.0
2015-Aug-24 02:34N 35°27' E 139°40'0 0.0
2015-Aug-24 01:34N 35°27' E 139°40'1 1.0
2015-Aug-24 00:34N 35°27' E 139°39'0 0.0
2015-Aug-23 23:34N 35°27' E 139°39'2 1.7
2015-Aug-23 22:33N 35°26' E 139°40'3 2.9
2015-Aug-23 21:34N 35°25' E 139°44'  
Track history (hours):
 
Tides and Currents Weather Stations Pressure Air Temp Water Temp Dewpoint Dewpoint Depression Visibility Wind Speed Wind Dir Waves Ship Positions

Yamato

Last reported at 2015-Sep-02 21:34 UTC. Time now 2015-Sep-02 21:48 UTC.
Position N 35°27' E 139°39'.

Length 43 m; draft 3.6 m.

Type: Tug. MMSI: 431101141.

Date/timePositionNaut miles runAvg speedWind from/ knotsBaromVisibWave heightAir tempDewpointWater temp
2015-Sep-02 21:34N 35°27' E 139°39'0 0.0
2015-Sep-02 20:34N 35°27' E 139°39'0 0.0
2015-Sep-02 19:34N 35°27' E 139°39'0 0.0
2015-Sep-02 18:34N 35°27' E 139°39'0 0.0
2015-Sep-02 17:34N 35°27' E 139°39'0 0.0
2015-Sep-02 16:34N 35°27' E 139°39'0 0.0
2015-Sep-02 15:33N 35°27' E 139°39'0 0.0
2015-Sep-02 14:33N 35°27' E 139°39'0 0.0
2015-Sep-02 13:33N 35°27' E 139°39'0 0.0
2015-Sep-02 12:33N 35°27' E 139°39'0 0.0
2015-Sep-02 11:34N 35°27' E 139°39'0 0.0
2015-Sep-02 10:33N 35°27' E 139°39'0 0.0
2015-Sep-02 09:33N 35°27' E 139°39'0 0.0
2015-Sep-02 08:33N 35°27' E 139°39'0 0.0
2015-Sep-02 07:33N 35°27' E 139°39'0 0.0
2015-Sep-02 06:33N 35°27' E 139°39'0 0.0
2015-Sep-02 05:33N 35°27' E 139°39'0 0.0
2015-Sep-02 04:33N 35°27' E 139°39'0 0.0
2015-Sep-02 03:33N 35°27' E 139°39'0 0.0
2015-Sep-02 02:33N 35°27' E 139°39'0 0.0
2015-Sep-02 01:33N 35°27' E 139°39'0 0.0
2015-Sep-02 00:33N 35°27' E 139°39'2 1.9
2015-Sep-01 23:33N 35°27' E 139°41'4 3.7
2015-Sep-01 22:33N 35°29' E 139°45'3 3.4
2015-Sep-01 21:33N 35°27' E 139°41'2 2.3
2015-Sep-01 20:33N 35°27' E 139°39'0 0.0
2015-Sep-01 07:12N 35°27' E 139°39'1 2.2
2015-Sep-01 06:33N 35°28' E 139°40'0 0.1
2015-Sep-01 05:33N 35°28' E 139°40'0 0.0
2015-Sep-01 04:33N 35°28' E 139°40'4 4.0
2015-Sep-01 03:33N 35°24' E 139°41'3 2.8
2015-Sep-01 02:33N 35°26' E 139°42'0 0.3
2015-Sep-01 01:33N 35°27' E 139°41'4 3.6
2015-Sep-01 00:33N 35°24' E 139°38'3 2.8
2015-Aug-31 23:34N 35°24' E 139°42'4 4.0
2015-Aug-31 22:33N 35°27' E 139°39'0 0.0
2015-Aug-31 21:33N 35°27' E 139°39'0 0.0
2015-Aug-31 20:33N 35°27' E 139°39'0 0.0
2015-Aug-31 19:33N 35°27' E 139°39'0 0.0
2015-Aug-31 18:33N 35°27' E 139°39'0 0.0
2015-Aug-31 17:33N 35°27' E 139°39'0 0.0
2015-Aug-31 16:33N 35°27' E 139°39'0 0.0
2015-Aug-31 15:33N 35°27' E 139°39'0 0.0
2015-Aug-31 14:33N 35°27' E 139°39'0 0.0
2015-Aug-31 13:33N 35°27' E 139°39'0 0.0
2015-Aug-31 12:33N 35°27' E 139°39'0 0.0
2015-Aug-31 11:33N 35°27' E 139°39'0 0.0
2015-Aug-31 10:33N 35°27' E 139°39'0 0.0
2015-Aug-31 09:33N 35°27' E 139°39'2 2.3
2015-Aug-31 08:33N 35°27' E 139°41'0 0.4
2015-Aug-31 07:34N 35°27' E 139°41'2 2.3
2015-Aug-31 06:33N 35°27' E 139°39'0 0.0
2015-Aug-31 05:33N 35°27' E 139°39'0 0.0
2015-Aug-31 04:33N 35°27' E 139°39'0 0.0
2015-Aug-31 03:33N 35°27' E 139°39'0 0.0
2015-Aug-31 02:33N 35°27' E 139°39'0 0.0
2015-Aug-31 01:33N 35°27' E 139°39'0 0.0
2015-Aug-31 00:33N 35°27' E 139°39'4 4.1
2015-Aug-30 23:33N 35°28' E 139°44'2 2.1
2015-Aug-30 22:33N 35°30' E 139°44'2 2.3
2015-Aug-30 21:33N 35°31' E 139°46'7 6.8
2015-Aug-30 20:33N 35°27' E 139°39'0 0.3
2015-Aug-30 19:33N 35°27' E 139°39'0 0.0
2015-Aug-30 18:33N 35°27' E 139°39'0 0.0
2015-Aug-30 17:33N 35°27' E 139°39'0 0.0
2015-Aug-30 16:33N 35°27' E 139°39'0 0.0
2015-Aug-30 15:33N 35°27' E 139°39'0 0.0
2015-Aug-30 14:33N 35°27' E 139°39'0 0.0
2015-Aug-30 13:33N 35°27' E 139°39'0 0.0
2015-Aug-30 12:33N 35°27' E 139°39'0 0.0
2015-Aug-30 11:33N 35°27' E 139°39'0 0.0
2015-Aug-30 10:33N 35°27' E 139°39'0 0.0
2015-Aug-30 09:33N 35°27' E 139°39'0 0.0
2015-Aug-30 08:33N 35°27' E 139°39'0 0.0
2015-Aug-30 07:33N 35°27' E 139°39'0 0.0
2015-Aug-30 06:33N 35°27' E 139°39'0 0.0
2015-Aug-30 05:33N 35°27' E 139°39'0 0.0
2015-Aug-30 04:33N 35°27' E 139°39'0 0.0
2015-Aug-30 03:33N 35°27' E 139°39'0 0.0
2015-Aug-30 02:33N 35°27' E 139°39'0 0.0
2015-Aug-30 01:33N 35°27' E 139°39'0 0.0
2015-Aug-30 00:33N 35°27' E 139°39'0 0.0
2015-Aug-29 23:33N 35°27' E 139°39'0 0.0
2015-Aug-29 22:33N 35°27' E 139°39'0 0.0
2015-Aug-29 21:33N 35°27' E 139°39'0 0.0
2015-Aug-29 20:33N 35°27' E 139°39'0 0.0
2015-Aug-29 19:33N 35°27' E 139°39'0 0.0
2015-Aug-29 18:33N 35°27' E 139°39'0 0.0
2015-Aug-29 17:33N 35°27' E 139°39'0 0.0
2015-Aug-29 16:33N 35°27' E 139°39'0 0.0
2015-Aug-29 15:33N 35°27' E 139°39'0 0.0
2015-Aug-29 14:33N 35°27' E 139°39'0 0.0
2015-Aug-29 13:33N 35°27' E 139°39'0 0.0
2015-Aug-29 12:33N 35°27' E 139°39'0 0.0
2015-Aug-29 11:33N 35°27' E 139°39'0 0.0
2015-Aug-29 10:33N 35°27' E 139°39'2 2.1
2015-Aug-29 09:33N 35°26' E 139°41'1 1.1
2015-Aug-29 08:33N 35°26' E 139°42'0 0.3
2015-Aug-29 07:33N 35°26' E 139°42'0 0.0
2015-Aug-29 06:33N 35°26' E 139°42'1 1.3
2015-Aug-29 05:33N 35°27' E 139°41'2 2.1
2015-Aug-29 04:33N 35°26' E 139°43'4 3.9
2015-Aug-29 03:33N 35°27' E 139°39'0 0.0
2015-Aug-29 02:33N 35°27' E 139°39'0 0.0
2015-Aug-29 01:33N 35°27' E 139°39'0 0.0
2015-Aug-29 00:33N 35°27' E 139°39'6 6.1
2015-Aug-28 23:33N 35°29' E 139°46'2 1.5
2015-Aug-28 22:33N 35°29' E 139°48'4 3.7
2015-Aug-28 21:33N 35°27' E 139°44'4 4.1
2015-Aug-28 20:33N 35°27' E 139°39'0 0.0
2015-Aug-28 19:33N 35°27' E 139°39'0 0.0
2015-Aug-28 18:33N 35°27' E 139°39'0 0.0
2015-Aug-28 17:33N 35°27' E 139°39'0 0.0
2015-Aug-28 16:33N 35°27' E 139°39'0 0.0
2015-Aug-28 15:33N 35°27' E 139°39'0 0.0
2015-Aug-28 14:33N 35°27' E 139°39'0 0.0
2015-Aug-28 13:33N 35°27' E 139°39'0 0.0
2015-Aug-28 12:33N 35°27' E 139°39'0 0.0
2015-Aug-28 11:33N 35°27' E 139°39'0 0.0
2015-Aug-28 10:33N 35°27' E 139°39'0 0.0
2015-Aug-28 09:33N 35°27' E 139°39'0 0.0
2015-Aug-28 08:33N 35°27' E 139°39'0 0.0
2015-Aug-28 07:33N 35°27' E 139°39'0 0.0
2015-Aug-28 06:33N 35°27' E 139°39'0 0.0
2015-Aug-28 05:33N 35°27' E 139°39'0 0.0
2015-Aug-28 04:33N 35°27' E 139°39'0 0.0
2015-Aug-28 03:33N 35°27' E 139°39'0 0.0
2015-Aug-28 02:33N 35°27' E 139°39'1 0.7
2015-Aug-28 01:33N 35°27' E 139°39'7 6.6
2015-Aug-28 00:33N 35°31' E 139°46'1 0.8
2015-Aug-27 23:33N 35°30' E 139°46'5 5.0
2015-Aug-27 22:34N 35°27' E 139°41'2 1.9
2015-Aug-27 21:33N 35°26' E 139°42'4 3.5
2015-Aug-27 20:33N 35°27' E 139°39'0 0.0
2015-Aug-27 11:23N 35°27' E 139°39'2 2.6
2015-Aug-27 10:33N 35°27' E 139°41'1 0.8
2015-Aug-27 09:33N 35°28' E 139°40'0 0.0
2015-Aug-27 08:33N 35°28' E 139°40'0 0.0
2015-Aug-27 07:33N 35°28' E 139°40'0 0.5
2015-Aug-27 06:34N 35°27' E 139°41'0 0.4
2015-Aug-27 05:33N 35°28' E 139°40'0 0.0
2015-Aug-27 04:33N 35°28' E 139°40'4 4.1
2015-Aug-27 03:33N 35°24' E 139°38'0 0.0
2015-Aug-27 02:33N 35°24' E 139°38'3 3.4
2015-Aug-27 01:33N 35°22' E 139°41'5 5.0
2015-Aug-27 00:33N 35°27' E 139°41'2 0.1
2015-Aug-25 23:33N 35°27' E 139°39'2 2.2
2015-Aug-25 22:34N 35°27' E 139°41'3 2.7
2015-Aug-25 21:34N 35°25' E 139°42'1 1.4
2015-Aug-25 20:34N 35°26' E 139°42'0 0.0
2015-Aug-25 19:34N 35°26' E 139°42'1 0.9
2015-Aug-25 18:33N 35°27' E 139°41'1 1.1
2015-Aug-25 17:34N 35°27' E 139°42'4 4.3
2015-Aug-25 16:34N 35°30' E 139°46'0 0.4
2015-Aug-25 15:34N 35°29' E 139°47'0 0.0
2015-Aug-25 14:34N 35°29' E 139°47'0 0.0
2015-Aug-25 13:34N 35°29' E 139°47'0 0.1
2015-Aug-25 12:34N 35°29' E 139°47'4 4.0
2015-Aug-25 11:34N 35°27' E 139°42'2 2.5
2015-Aug-25 10:34N 35°27' E 139°39'4 3.6
2015-Aug-25 09:33N 35°25' E 139°43'5 5.0
2015-Aug-25 08:34N 35°24' E 139°38'4 3.8
2015-Aug-25 07:34N 35°26' E 139°42'3 3.1
2015-Aug-25 06:34N 35°27' E 139°39'0 0.1
2015-Aug-25 05:34N 35°27' E 139°39'0 0.1
2015-Aug-25 04:34N 35°27' E 139°39'2 1.5
2015-Aug-25 03:34N 35°28' E 139°40'3 2.7
2015-Aug-25 02:34N 35°29' E 139°43'2 2.2
2015-Aug-25 01:34N 35°27' E 139°43'4 3.8
2015-Aug-25 00:34N 35°27' E 139°39'0 0.0
2015-Aug-24 23:34N 35°27' E 139°39'0 0.0
2015-Aug-24 22:34N 35°27' E 139°39'0 0.0
2015-Aug-24 21:34N 35°27' E 139°39'0 0.0
2015-Aug-24 20:34N 35°27' E 139°39'0 0.0
2015-Aug-24 19:34N 35°27' E 139°39'0 0.0
2015-Aug-24 18:33N 35°27' E 139°39'0 0.0
2015-Aug-24 17:34N 35°27' E 139°39'0 0.0
2015-Aug-24 16:34N 35°27' E 139°39'0 0.0
2015-Aug-24 15:34N 35°27' E 139°39'0 0.0
2015-Aug-24 14:34N 35°27' E 139°39'0 0.0
2015-Aug-24 13:34N 35°27' E 139°39'0 0.0
2015-Aug-24 12:34N 35°27' E 139°39'0 0.0
2015-Aug-24 11:33N 35°27' E 139°39'0 0.0
2015-Aug-24 10:34N 35°27' E 139°39'0 0.0
2015-Aug-24 09:34N 35°27' E 139°39'0 0.0
2015-Aug-24 08:34N 35°27' E 139°39'0 0.0
2015-Aug-24 07:34N 35°27' E 139°39'0 0.0
2015-Aug-24 06:34N 35°27' E 139°39'1 1.0
2015-Aug-24 05:34N 35°27' E 139°40'0 0.0
2015-Aug-24 04:34N 35°27' E 139°40'0 0.0
2015-Aug-24 03:34N 35°27' E 139°40'0 0.0
2015-Aug-24 02:34N 35°27' E 139°40'0 0.0
2015-Aug-24 01:34N 35°27' E 139°40'1 1.0
2015-Aug-24 00:34N 35°27' E 139°39'0 0.0
2015-Aug-23 23:34N 35°27' E 139°39'2 1.7
2015-Aug-23 22:33N 35°26' E 139°40'3 2.9
2015-Aug-23 21:34N 35°25' E 139°44'  

Dump ship's entire track history